Time;durP1;ratioP1;P1;durP2;ratioP2;P2;SDS_P1;SDS_P2;PMS_P1;PMS_P2;Temp;Humidity;BMP_temperature;BMP_pressure;BME280_temperature;BME280_humidity;BME280_pressure;Samples;Min_cycle;Max_cycle;Signal;HPM_P1;HPM_P2
2022/06/18 00:01:21;;;;;;;16.10;15.33;;;26.00;71.20;;;;;;5071270;28;20447;-63
2022/06/18 00:03:48;;;;;;;17.10;16.30;;;26.00;71.30;;;;;;5071650;28;20898;-63
2022/06/18 00:06:16;;;;;;;15.50;14.90;;;26.00;71.50;;;;;;5071749;28;20909;-63
2022/06/18 00:08:43;;;;;;;17.40;16.60;;;25.90;71.60;;;;;;5071270;28;20494;-63
2022/06/18 00:13:55;;;;;;;17.10;16.40;;;25.90;72.00;;;;;;5071716;28;20433;-63
2022/06/18 00:16:22;;;;;;;16.27;15.53;;;25.90;72.20;;;;;;5071547;28;20446;-63
2022/06/18 00:18:50;;;;;;;16.80;16.20;;;25.90;72.30;;;;;;5071166;28;20471;-63
2022/06/18 00:21:27;;;;;;;18.00;17.30;;;25.90;72.20;;;;;;5071402;28;20498;-63
2022/06/18 00:23:54;;;;;;;18.17;17.47;;;25.90;72.20;;;;;;5071406;28;20545;-63
2022/06/18 00:26:20;;;;;;;18.40;17.50;;;25.90;72.30;;;;;;5071439;28;20449;-63
2022/06/18 00:28:48;;;;;;;16.80;16.30;;;25.90;72.20;;;;;;5070708;28;20471;-63
2022/06/18 00:31:16;;;;;;;16.17;15.67;;;25.90;72.20;;;;;;5071353;28;20938;-63
2022/06/18 00:33:42;;;;;;;17.13;16.43;;;25.90;72.30;;;;;;5071397;28;20494;-63
2022/06/18 00:36:15;;;;;;;16.70;16.20;;;25.90;73.00;;;;;;5071345;28;20523;-63
2022/06/18 00:38:45;;;;;;;15.80;15.20;;;25.90;72.20;;;;;;5071056;28;20934;-63
2022/06/18 00:41:17;;;;;;;16.30;15.80;;;25.90;72.20;;;;;;5071377;28;20534;-63
2022/06/18 00:43:47;;;;;;;16.77;16.23;;;25.80;72.10;;;;;;5071226;28;20894;-63
2022/06/18 00:46:20;;;;;;;16.07;15.47;;;25.80;72.10;;;;;;5071368;28;20475;-63
2022/06/18 00:48:54;;;;;;;16.57;15.87;;;25.80;72.20;;;;;;5070803;28;20475;-63
2022/06/18 00:51:25;;;;;;;15.20;14.70;;;25.80;72.30;;;;;;5071316;28;20530;-63
2022/06/18 00:54:00;;;;;;;15.33;14.83;;;25.80;73.10;;;;;;5071229;28;20550;-63
2022/06/18 00:56:34;;;;;;;15.90;15.30;;;25.80;72.50;;;;;;5071218;28;20469;-63
2022/06/18 00:59:05;;;;;;;15.83;15.03;;;25.70;72.40;;;;;;5070782;28;20515;-63
2022/06/18 01:01:35;;;;;;;15.90;15.30;;;25.80;72.50;;;;;;5071433;28;20471;-63
2022/06/18 01:04:02;;;;;;;16.50;15.90;;;25.80;72.60;;;;;;5071146;28;20542;-63
2022/06/18 01:06:31;;;;;;;18.77;18.13;;;25.70;72.80;;;;;;5070975;28;20547;-63
2022/06/18 01:09:04;;;;;;;18.07;17.43;;;25.70;72.80;;;;;;5070400;28;20554;-63
2022/06/18 01:11:35;;;;;;;16.67;15.93;;;25.80;73.00;;;;;;5070560;28;20483;-63
2022/06/18 01:14:05;;;;;;;14.90;14.40;;;25.70;73.50;;;;;;5073906;28;20546;-63
2022/06/18 01:16:34;;;;;;;16.83;16.23;;;25.70;72.80;;;;;;5074780;28;20938;-63
2022/06/18 01:19:03;;;;;;;15.60;15.07;;;25.70;72.80;;;;;;5074245;28;20467;-63
2022/06/18 01:21:37;;;;;;;16.83;16.13;;;25.70;73.00;;;;;;5074614;28;20449;-63
2022/06/18 01:24:12;;;;;;;16.27;15.73;;;25.70;73.10;;;;;;5074673;28;20881;-63
2022/06/18 01:26:39;;;;;;;16.40;15.70;;;25.70;72.90;;;;;;5074359;28;20545;-63
2022/06/18 01:29:06;;;;;;;16.20;15.60;;;25.70;73.70;;;;;;5074386;28;20538;-63
2022/06/18 01:31:33;;;;;;;16.70;16.10;;;25.70;73.80;;;;;;5074548;28;20474;-63
2022/06/18 01:34:00;;;;;;;17.17;16.57;;;25.70;73.00;;;;;;5074130;28;20537;-63
2022/06/18 01:36:29;;;;;;;18.30;17.70;;;25.70;73.00;;;;;;5074384;28;20442;-63
2022/06/18 01:38:56;;;;;;;16.87;16.27;;;25.60;73.00;;;;;;5074135;28;20863;-63
2022/06/18 01:44:18;;;;;;;16.80;16.03;;;25.60;72.80;;;;;;5073840;28;20471;-63
2022/06/18 01:46:48;;;;;;;17.53;16.30;;;25.60;72.80;;;;;;5074076;28;20882;-63
2022/06/18 01:49:21;;;;;;;16.33;15.63;;;25.60;72.80;;;;;;5074055;28;20514;-63
2022/06/18 01:51:50;;;;;;;17.13;16.40;;;25.60;72.80;;;;;;5074132;28;20534;-63
2022/06/18 01:54:20;;;;;;;15.40;14.90;;;25.60;72.80;;;;;;5073811;28;20495;-63
2022/06/18 01:56:58;;;;;;;16.90;16.30;;;25.60;72.90;;;;;;5073860;28;20837;-63
2022/06/18 01:59:29;;;;;;;16.83;16.27;;;25.60;72.70;;;;;;5074038;28;20849;-63
2022/06/18 02:01:57;;;;;;;18.30;17.67;;;25.60;72.70;;;;;;5073659;28;20443;-63
2022/06/18 02:04:27;;;;;;;15.40;14.90;;;25.60;72.70;;;;;;5073674;28;20499;-63
2022/06/18 02:06:54;;;;;;;16.47;15.87;;;25.50;72.70;;;;;;5073680;28;20947;-61
2022/06/18 02:09:34;;;;;;;17.33;16.73;;;25.50;72.80;;;;;;5073760;28;20454;-63
2022/06/18 02:12:05;;;;;;;16.63;15.93;;;25.50;72.70;;;;;;5073654;28;20455;-63
2022/06/18 02:14:34;;;;;;;16.80;16.20;;;25.50;72.70;;;;;;5073660;28;20495;-63
2022/06/18 02:17:05;;;;;;;16.60;16.10;;;25.50;72.50;;;;;;5073508;28;20449;-63
2022/06/18 02:19:34;;;;;;;17.07;16.37;;;25.50;72.20;;;;;;5073522;28;20447;-63
2022/06/18 02:22:02;;;;;;;15.90;15.40;;;25.50;72.10;;;;;;5073393;28;20529;-63
2022/06/18 02:24:29;;;;;;;16.97;16.13;;;25.50;72.00;;;;;;5073423;28;20499;-63
2022/06/18 02:26:57;;;;;;;16.57;15.97;;;25.50;72.00;;;;;;5073314;28;21021;-63
2022/06/18 02:29:30;;;;;;;16.10;15.47;;;25.50;71.80;;;;;;5073464;28;20467;-63
2022/06/18 02:31:57;;;;;;;17.10;16.17;;;25.50;71.90;;;;;;5073337;28;20471;-63
2022/06/18 02:34:26;;;;;;;16.13;15.63;;;25.50;71.80;;;;;;5073194;28;20494;-63
2022/06/18 02:36:53;;;;;;;16.97;16.37;;;25.40;71.80;;;;;;5073069;28;20982;-62
2022/06/18 02:39:29;;;;;;;16.90;16.30;;;25.50;71.80;;;;;;5073139;28;20522;-62
2022/06/18 02:42:00;;;;;;;16.07;15.47;;;25.50;71.90;;;;;;5072908;28;20485;-62
2022/06/18 02:44:29;;;;;;;16.13;15.53;;;25.50;72.00;;;;;;5099029;22;20575;-67
2022/06/18 02:46:56;;;;;;;17.40;16.80;;;25.50;72.10;;;;;;5072878;28;20530;-67
2022/06/18 02:49:23;;;;;;;17.43;16.80;;;25.40;72.00;;;;;;5072605;28;20570;-67
2022/06/18 02:51:50;;;;;;;16.47;15.77;;;25.40;72.10;;;;;;5073018;28;20526;-67
2022/06/18 02:54:19;;;;;;;16.67;16.07;;;25.40;72.10;;;;;;5072883;28;20896;-66
2022/06/18 02:56:47;;;;;;;17.63;16.57;;;25.40;72.00;;;;;;5072749;28;20439;-67
2022/06/18 02:59:14;;;;;;;17.70;17.00;;;25.40;72.10;;;;;;5072435;28;20941;-67
2022/06/18 03:01:43;;;;;;;16.83;16.20;;;25.40;72.20;;;;;;5072782;28;20641;-68
2022/06/18 03:04:10;;;;;;;17.00;16.40;;;25.40;72.30;;;;;;5072651;28;20825;-66
2022/06/18 03:06:37;;;;;;;18.20;17.50;;;25.40;72.60;;;;;;5072617;28;20470;-67
2022/06/18 03:09:04;;;;;;;17.10;16.50;;;25.40;72.80;;;;;;5072233;28;20483;-67
2022/06/18 03:14:18;;;;;;;17.17;16.47;;;25.40;72.80;;;;;;5072557;28;20442;-66
2022/06/18 03:16:46;;;;;;;17.97;17.27;;;25.30;72.80;;;;;;5072295;28;20509;-67
2022/06/18 03:19:26;;;;;;;17.10;16.50;;;25.30;72.70;;;;;;5072182;28;20845;-67
2022/06/18 03:21:56;;;;;;;17.03;16.43;;;25.30;72.90;;;;;;5072381;28;20454;-70
2022/06/18 03:24:23;;;;;;;17.90;17.20;;;25.30;73.10;;;;;;5069570;28;20470;-71
2022/06/18 03:26:51;;;;;;;17.37;16.80;;;25.30;73.50;;;;;;5072397;28;20555;-71
2022/06/18 03:29:18;;;;;;;17.43;16.70;;;25.40;73.40;;;;;;5072155;28;20475;-69
2022/06/18 03:31:46;;;;;;;17.90;17.30;;;25.30;73.30;;;;;;5072222;28;20448;-69
2022/06/18 03:34:13;;;;;;;17.80;17.10;;;25.30;73.50;;;;;;5071724;28;20551;-69
2022/06/18 03:36:40;;;;;;;17.03;16.43;;;25.30;73.60;;;;;;5071577;28;20454;-69
2022/06/18 03:39:10;;;;;;;16.63;16.03;;;25.30;73.60;;;;;;5072070;28;20533;-70
2022/06/18 03:41:37;;;;;;;18.83;18.23;;;25.30;73.50;;;;;;5071091;28;20526;-70
2022/06/18 03:44:04;;;;;;;18.47;17.77;;;25.40;74.10;;;;;;5071844;28;20482;-71
2022/06/18 03:46:31;;;;;;;18.50;17.87;;;25.30;73.10;;;;;;5071883;28;20439;-71
2022/06/18 03:49:02;;;;;;;17.70;17.00;;;25.40;73.10;;;;;;5071604;28;20517;-70
2022/06/18 03:51:29;;;;;;;17.07;16.47;;;25.40;73.10;;;;;;5071564;28;20497;-71
2022/06/18 03:53:56;;;;;;;16.87;16.27;;;25.40;74.00;;;;;;5071957;28;20471;-71
2022/06/18 03:56:25;;;;;;;17.73;17.13;;;25.40;73.30;;;;;;5071853;28;20530;-71
2022/06/18 03:58:53;;;;;;;17.30;16.70;;;25.40;73.50;;;;;;5071687;28;20463;-70
2022/06/18 04:01:22;;;;;;;18.47;17.80;;;25.40;73.60;;;;;;5071989;28;21022;-68
2022/06/18 04:03:49;;;;;;;18.70;18.10;;;25.30;73.70;;;;;;5072166;28;20550;-66
2022/06/18 04:06:17;;;;;;;19.60;18.80;;;25.30;73.90;;;;;;5072136;28;20491;-67
2022/06/18 04:08:45;;;;;;;18.57;17.97;;;25.30;73.80;;;;;;5071540;28;20566;-67
2022/06/18 04:11:12;;;;;;;19.10;18.40;;;25.30;73.80;;;;;;5071632;28;20873;-69
2022/06/18 04:13:39;;;;;;;18.23;17.53;;;25.30;74.80;;;;;;5071550;28;21058;-70
2022/06/18 04:16:07;;;;;;;18.47;17.87;;;25.30;74.10;;;;;;5071887;28;20447;-70
2022/06/18 04:18:34;;;;;;;18.53;17.93;;;25.30;74.10;;;;;;5072024;28;20439;-68
2022/06/18 04:21:01;;;;;;;18.10;17.40;;;25.30;74.20;;;;;;5071151;28;20866;-69
2022/06/18 04:23:30;;;;;;;19.77;18.90;;;25.30;74.20;;;;;;5071591;28;20543;-68
2022/06/18 04:25:57;;;;;;;19.00;18.30;;;25.30;74.50;;;;;;5071625;28;20530;-71
2022/06/18 04:28:24;;;;;;;19.57;18.87;;;25.30;74.80;;;;;;5071206;28;20580;-67
2022/06/18 04:30:51;;;;;;;20.00;19.10;;;25.30;74.90;;;;;;5071318;28;20535;-67
2022/06/18 04:33:17;;;;;;;19.90;18.80;;;25.30;75.10;;;;;;5071409;28;20470;-67
2022/06/18 04:35:44;;;;;;;19.70;19.00;;;25.30;75.30;;;;;;5071463;28;20471;-67
2022/06/18 04:38:13;;;;;;;19.20;18.50;;;25.30;75.50;;;;;;5071124;28;20944;-67
2022/06/18 04:40:41;;;;;;;19.20;18.50;;;25.30;75.70;;;;;;5071078;28;20546;-68
2022/06/18 04:43:10;;;;;;;18.27;17.67;;;25.30;75.40;;;;;;5070974;28;21011;-68
2022/06/18 04:45:38;;;;;;;19.10;18.40;;;25.30;75.50;;;;;;5071303;28;20457;-68
2022/06/18 04:48:06;;;;;;;19.80;19.03;;;25.30;75.60;;;;;;5072534;28;21130;-68
2022/06/18 04:50:35;;;;;;;19.47;18.83;;;25.30;75.80;;;;;;5075086;28;20521;-68
2022/06/18 04:53:02;;;;;;;18.93;18.23;;;25.30;75.80;;;;;;5075326;28;20498;-69
2022/06/18 04:55:29;;;;;;;19.73;19.03;;;25.30;75.70;;;;;;5075200;28;20528;-67
2022/06/18 04:57:58;;;;;;;21.20;20.30;;;25.40;76.00;;;;;;5074972;28;20481;-68
2022/06/18 05:00:25;;;;;;;20.90;20.07;;;25.30;75.90;;;;;;5074845;28;20478;-67
2022/06/18 05:02:52;;;;;;;21.17;20.27;;;25.40;76.10;;;;;;5075111;28;20881;-68
2022/06/18 05:05:23;;;;;;;19.93;19.23;;;25.40;76.20;;;;;;5074940;28;20501;-69
2022/06/18 05:07:50;;;;;;;18.57;17.97;;;25.40;76.00;;;;;;5074761;28;20514;-69
2022/06/18 05:10:18;;;;;;;20.73;19.93;;;25.40;76.00;;;;;;5074863;28;20439;-67
2022/06/18 05:12:45;;;;;;;20.23;19.53;;;25.40;75.90;;;;;;5074687;28;20505;-67
2022/06/18 05:15:13;;;;;;;20.00;19.20;;;25.40;76.00;;;;;;5074668;28;20498;-69
2022/06/18 05:17:43;;;;;;;20.50;19.80;;;25.40;76.00;;;;;;5075073;28;20517;-68
2022/06/18 05:20:14;;;;;;;19.30;18.60;;;25.50;76.30;;;;;;5075137;28;20940;-69
2022/06/18 05:22:41;;;;;;;19.50;18.90;;;25.50;76.30;;;;;;5074903;28;20462;-67
2022/06/18 05:25:10;;;;;;;20.00;19.20;;;25.50;75.70;;;;;;5074323;28;20473;-66
2022/06/18 05:27:37;;;;;;;19.00;18.40;;;25.50;75.90;;;;;;5074467;28;20447;-67
2022/06/18 05:30:06;;;;;;;20.23;19.53;;;25.60;75.80;;;;;;5074483;28;20483;-66
2022/06/18 05:32:34;;;;;;;19.43;18.63;;;25.60;75.80;;;;;;5074634;28;20542;-65
2022/06/18 05:35:01;;;;;;;19.97;19.27;;;25.70;76.20;;;;;;5074411;28;20479;-66
2022/06/18 05:37:30;;;;;;;19.40;18.80;;;25.70;76.10;;;;;;5072960;28;20455;-66
2022/06/18 05:39:57;;;;;;;18.63;18.03;;;25.60;77.20;;;;;;5074185;28;20482;-67
2022/06/18 05:42:25;;;;;;;21.07;20.17;;;25.60;77.30;;;;;;5075606;28;20527;-67
2022/06/18 05:44:54;;;;;;;21.90;21.10;;;25.60;78.50;;;;;;5075426;28;20471;-68
2022/06/18 05:47:23;;;;;;;21.43;20.73;;;25.60;78.20;;;;;;5073982;28;20443;-69
2022/06/18 05:49:52;;;;;;;20.40;19.73;;;25.60;78.10;;;;;;5074094;28;20487;-69
2022/06/18 05:52:19;;;;;;;21.17;20.40;;;25.60;78.00;;;;;;5074103;28;20534;-71
2022/06/18 05:54:47;;;;;;;20.60;19.80;;;25.60;78.20;;;;;;5074136;28;20538;-72
2022/06/18 05:57:14;;;;;;;21.97;21.03;;;25.60;77.50;;;;;;5073575;28;20452;-70
2022/06/18 05:59:41;;;;;;;22.47;21.57;;;25.70;78.10;;;;;;5073461;28;20622;-68
2022/06/18 06:02:11;;;;;;;21.53;20.80;;;25.70;78.90;;;;;;5074175;28;20543;-68
2022/06/18 06:04:39;;;;;;;22.43;21.60;;;25.70;77.80;;;;;;5073813;28;20978;-66
2022/06/18 06:07:07;;;;;;;21.60;20.80;;;25.70;78.20;;;;;;5073474;28;20457;-68
2022/06/18 06:12:19;;;;;;;22.13;21.30;;;25.70;79.30;;;;;;5073793;28;20418;-67
2022/06/18 06:14:46;;;;;;;19.63;19.03;;;25.70;79.80;;;;;;5073491;28;20829;-65
2022/06/18 06:17:15;;;;;;;20.87;20.17;;;25.70;79.80;;;;;;5073504;28;20486;-65
2022/06/18 06:19:42;;;;;;;21.83;21.03;;;25.70;80.80;;;;;;5073536;28;20446;-67
2022/06/18 06:22:11;;;;;;;23.10;22.30;;;25.70;80.30;;;;;;5073660;28;20534;-64
2022/06/18 06:24:38;;;;;;;23.33;22.43;;;25.80;80.50;;;;;;5073195;28;20467;-64
2022/06/18 06:27:05;;;;;;;22.87;22.07;;;25.80;80.50;;;;;;5073414;28;20478;-68
2022/06/18 06:29:32;;;;;;;23.33;22.53;;;25.80;81.20;;;;;;5073409;28;20521;-69
2022/06/18 06:31:59;;;;;;;22.53;21.63;;;25.80;81.20;;;;;;5073295;28;20447;-68
2022/06/18 06:34:26;;;;;;;22.70;21.80;;;25.80;81.30;;;;;;5073276;28;20513;-67
2022/06/18 06:36:52;;;;;;;22.63;21.67;;;25.90;80.80;;;;;;5073317;28;20534;-67
2022/06/18 06:39:21;;;;;;;21.30;20.50;;;25.90;81.40;;;;;;5073719;28;20439;-67
2022/06/18 06:41:48;;;;;;;21.23;20.57;;;25.90;81.00;;;;;;5074380;28;20482;-67
2022/06/18 06:44:14;;;;;;;21.27;20.47;;;25.90;80.20;;;;;;5073933;28;20840;-68
2022/06/18 06:46:41;;;;;;;21.30;20.60;;;25.90;81.40;;;;;;5073377;28;20875;-68
2022/06/18 06:49:08;;;;;;;22.50;21.57;;;26.00;81.60;;;;;;5073261;28;20485;-68
2022/06/18 06:51:38;;;;;;;23.90;23.00;;;26.00;81.60;;;;;;5073740;28;20814;-71
2022/06/18 06:54:06;;;;;;;22.70;22.00;;;26.00;81.40;;;;;;5073556;28;20578;-69
2022/06/18 06:59:18;;;;;;;21.03;20.30;;;26.10;81.60;;;;;;5072994;28;20787;-69
2022/06/18 07:01:45;;;;;;;22.53;21.43;;;26.10;81.60;;;;;;5072853;28;20956;-68
2022/06/18 07:04:13;;;;;;;21.87;21.07;;;26.10;82.10;;;;;;5072736;28;20463;-71
2022/06/18 07:06:41;;;;;;;22.07;21.37;;;26.10;82.20;;;;;;5072805;28;20475;-67
2022/06/18 07:09:09;;;;;;;21.43;20.60;;;26.10;81.50;;;;;;5072854;28;20574;-69
2022/06/18 07:11:38;;;;;;;23.80;22.97;;;26.10;81.10;;;;;;5071946;28;20961;-68
2022/06/18 07:14:05;;;;;;;22.80;22.00;;;26.10;80.70;;;;;;5072467;28;20468;-68
2022/06/18 07:16:32;;;;;;;22.63;21.80;;;26.10;80.60;;;;;;5072569;28;20498;-69
2022/06/18 07:18:59;;;;;;;23.33;22.53;;;26.10;80.90;;;;;;5072080;28;20465;-69
2022/06/18 07:21:27;;;;;;;22.90;22.00;;;26.20;80.30;;;;;;5072557;28;20787;-70
2022/06/18 07:23:54;;;;;;;24.03;23.07;;;26.20;80.00;;;;;;5072423;28;20471;-66
2022/06/18 07:26:22;;;;;;;24.23;23.43;;;26.20;81.10;;;;;;5071416;28;20542;-68
2022/06/18 07:28:50;;;;;;;22.00;21.30;;;26.30;80.60;;;;;;5070895;28;20439;-68
2022/06/18 07:31:27;;;;;;;23.43;22.63;;;26.30;80.80;;;;;;5071325;28;20479;-65
2022/06/18 07:33:54;;;;;;;21.50;20.70;;;26.30;80.40;;;;;;5061709;28;21006;-65
2022/06/18 07:36:21;;;;;;;21.57;20.90;;;26.30;79.30;;;;;;5072328;28;20526;-67
2022/06/18 07:38:48;;;;;;;22.37;21.60;;;26.30;78.00;;;;;;5071878;28;20439;-68
2022/06/18 07:41:19;;;;;;;22.23;21.43;;;26.30;78.30;;;;;;5071850;28;20472;-66
2022/06/18 07:43:50;;;;;;;21.90;21.20;;;26.30;77.90;;;;;;5071653;28;20562;-68
2022/06/18 07:46:19;;;;;;;22.23;21.53;;;26.30;78.00;;;;;;5070709;28;20992;-65
2022/06/18 07:48:46;;;;;;;21.70;21.00;;;26.30;77.60;;;;;;5071333;28;20483;-64
2022/06/18 07:51:13;;;;;;;22.70;21.63;;;26.30;77.50;;;;;;5071583;28;20478;-64
2022/06/18 07:53:43;;;;;;;21.90;21.10;;;26.30;77.70;;;;;;5071814;28;20550;-66
2022/06/18 07:56:11;;;;;;;22.50;21.60;;;26.40;76.90;;;;;;5071979;28;20450;-63
2022/06/18 07:58:38;;;;;;;23.40;22.50;;;26.40;76.90;;;;;;5071613;28;20885;-63
2022/06/18 08:01:05;;;;;;;20.40;19.70;;;26.40;77.30;;;;;;5071240;28;20873;-65
2022/06/18 08:03:35;;;;;;;22.03;21.33;;;26.40;76.80;;;;;;5071659;28;20909;-66
2022/06/18 08:06:02;;;;;;;23.63;22.73;;;26.40;77.80;;;;;;5071119;28;20486;-66
2022/06/18 08:08:29;;;;;;;21.80;20.97;;;26.40;77.80;;;;;;5072157;28;20542;-66
2022/06/18 08:10:56;;;;;;;21.73;20.83;;;26.40;77.70;;;;;;5071005;28;20993;-66
2022/06/18 08:13:23;;;;;;;22.30;21.50;;;26.50;77.50;;;;;;5071704;28;20990;-65
2022/06/18 08:15:50;;;;;;;23.10;22.30;;;26.50;78.20;;;;;;5071653;28;20447;-66
2022/06/18 08:18:18;;;;;;;22.23;21.20;;;26.50;78.10;;;;;;5070810;28;20509;-66
2022/06/18 08:20:46;;;;;;;21.77;21.00;;;26.60;79.00;;;;;;5071606;28;20526;-64
2022/06/18 08:23:13;;;;;;;21.53;20.77;;;26.50;78.60;;;;;;5071566;28;20481;-66
2022/06/18 08:25:42;;;;;;;22.67;21.90;;;26.60;78.50;;;;;;5070913;28;20518;-64
2022/06/18 08:28:11;;;;;;;23.73;22.83;;;26.60;78.60;;;;;;5070487;28;20446;-64
2022/06/18 08:30:40;;;;;;;22.47;21.70;;;26.60;78.50;;;;;;5071593;28;20483;-65
2022/06/18 08:33:08;;;;;;;24.60;23.60;;;26.60;78.80;;;;;;5071351;28;20447;-64
2022/06/18 08:35:36;;;;;;;24.70;23.83;;;26.60;79.00;;;;;;5071851;28;20521;-66
2022/06/18 08:38:06;;;;;;;23.90;23.10;;;26.60;79.70;;;;;;5071453;28;20960;-64
2022/06/18 08:40:48;;;;;;;24.40;23.50;;;26.70;80.10;;;;;;5071678;28;20926;-64
2022/06/18 08:43:40;;;;;;;25.47;24.37;;;26.70;79.80;;;;;;5071886;28;20470;-65
2022/06/18 08:46:17;;;;;;;24.20;23.30;;;26.70;81.50;;;;;;5087770;23;20923;-67
2022/06/18 08:49:07;;;;;;;25.20;24.37;;;26.80;81.50;;;;;;5063270;28;20527;-67
2022/06/18 08:51:41;;;;;;;24.10;23.20;;;26.80;80.70;;;;;;5071334;28;20520;-66
2022/06/18 08:54:19;;;;;;;23.13;22.23;;;26.80;80.10;;;;;;5071312;28;20442;-66
2022/06/18 08:56:52;;;;;;;22.53;21.70;;;26.80;77.70;;;;;;5050523;28;21290;-66
2022/06/18 08:59:29;;;;;;;24.20;23.30;;;26.80;78.60;;;;;;5051226;28;20483;-66
2022/06/18 09:02:06;;;;;;;25.33;24.23;;;26.80;77.40;;;;;;5051292;28;20530;-66
2022/06/18 09:04:46;;;;;;;22.23;21.43;;;26.90;77.00;;;;;;5051227;28;20454;-66
2022/06/18 09:07:44;;;;;;;25.27;23.83;;;26.90;76.70;;;;;;5050435;28;20475;-67
2022/06/18 09:10:28;;;;;;;25.50;24.40;;;27.00;76.10;;;;;;5029630;28;21077;-66
2022/06/18 09:12:59;;;;;;;23.30;22.40;;;27.00;77.90;;;;;;5051052;28;20479;-65
2022/06/18 09:15:32;;;;;;;24.30;23.50;;;27.10;77.80;;;;;;5050916;28;20909;-67
2022/06/18 09:18:05;;;;;;;25.50;24.30;;;27.10;77.90;;;;;;5050442;28;20527;-66
2022/06/18 09:20:36;;;;;;;24.17;22.97;;;27.20;77.50;;;;;;5050768;28;20477;-65
2022/06/18 09:23:10;;;;;;;23.70;22.70;;;27.20;76.80;;;;;;5050958;28;20455;-66
2022/06/18 09:25:43;;;;;;;24.53;23.63;;;27.30;76.10;;;;;;5050549;28;21034;-66
2022/06/18 09:28:15;;;;;;;24.27;23.37;;;27.30;75.90;;;;;;5050618;28;20478;-66
2022/06/18 09:30:46;;;;;;;23.83;22.70;;;27.30;75.40;;;;;;5050614;28;20564;-68
2022/06/18 09:33:19;;;;;;;23.67;22.87;;;27.30;74.40;;;;;;5051008;28;20527;-66
2022/06/18 09:35:51;;;;;;;23.43;22.33;;;27.40;74.40;;;;;;5054405;28;21044;-68
2022/06/18 09:38:22;;;;;;;24.00;23.10;;;27.40;74.70;;;;;;5053416;28;20868;-65
2022/06/18 09:40:52;;;;;;;24.67;23.67;;;27.40;74.30;;;;;;5053372;28;20957;-65
2022/06/18 09:43:28;;;;;;;23.87;22.77;;;27.40;74.10;;;;;;5053980;28;20527;-65
2022/06/18 09:45:59;;;;;;;24.40;23.43;;;27.40;74.00;;;;;;5054145;28;20562;-66
2022/06/18 09:48:26;;;;;;;24.10;22.90;;;27.50;73.80;;;;;;5054032;28;20486;-66
2022/06/18 09:50:56;;;;;;;24.60;23.60;;;27.50;73.20;;;;;;5053759;28;20479;-67
2022/06/18 09:53:27;;;;;;;22.47;21.57;;;27.50;73.10;;;;;;5034309;28;20530;-65
2022/06/18 09:55:58;;;;;;;23.77;22.87;;;27.50;74.40;;;;;;5034232;28;20896;-65
2022/06/18 09:58:30;;;;;;;23.93;23.10;;;27.50;74.70;;;;;;5033961;28;20524;-67
2022/06/18 10:00:58;;;;;;;22.37;21.43;;;27.60;75.00;;;;;;5034161;28;20437;-64
2022/06/18 10:09:06;;;;;;;24.17;23.37;;;27.50;73.20;;;;;;5053864;28;20424;-64
2022/06/18 10:11:35;;;;;;;22.80;21.90;;;27.50;73.20;;;;;;5053653;28;20571;-64
2022/06/18 10:14:10;;;;;;;22.50;21.63;;;27.50;73.10;;;;;;5053692;28;20480;-64
2022/06/18 10:16:46;;;;;;;24.17;23.37;;;27.50;73.00;;;;;;5053745;28;20551;-65
2022/06/18 10:19:23;;;;;;;23.70;22.93;;;27.50;72.80;;;;;;5053817;28;20936;-64
2022/06/18 10:21:57;;;;;;;21.57;20.77;;;27.50;73.10;;;;;;5053658;28;20450;-64
2022/06/18 10:24:34;;;;;;;23.43;22.43;;;27.50;72.60;;;;;;5053559;28;20479;-64
2022/06/18 10:27:09;;;;;;;23.07;22.17;;;27.50;72.60;;;;;;5053466;28;20479;-64
2022/06/18 10:29:44;;;;;;;22.60;21.80;;;27.50;72.40;;;;;;5053397;28;20471;-63
2022/06/18 10:32:26;;;;;;;25.10;24.00;;;27.50;72.40;;;;;;5053513;28;20471;-62
2022/06/18 10:35:05;;;;;;;23.10;22.20;;;27.50;72.30;;;;;;5053536;28;20829;-64
2022/06/18 10:37:44;;;;;;;24.83;23.73;;;27.40;72.20;;;;;;5053165;28;20519;-64
2022/06/18 10:40:20;;;;;;;24.30;23.50;;;27.50;72.20;;;;;;5053310;28;20486;-64
2022/06/18 10:43:02;;;;;;;23.50;22.70;;;27.40;72.00;;;;;;5053236;28;20534;-64
2022/06/18 10:45:38;;;;;;;23.70;22.73;;;27.50;72.00;;;;;;5052976;28;20480;-63
2022/06/18 10:48:11;;;;;;;22.40;21.43;;;27.40;71.80;;;;;;5052906;28;20535;-64
2022/06/18 10:50:43;;;;;;;21.97;21.17;;;27.50;71.90;;;;;;5053081;28;21076;-65
2022/06/18 10:53:15;;;;;;;22.60;21.60;;;27.50;71.80;;;;;;5053046;28;20455;-63
2022/06/18 10:55:42;;;;;;;21.17;20.47;;;27.40;71.60;;;;;;5052594;28;20495;-65
2022/06/18 10:58:13;;;;;;;23.70;22.87;;;27.40;71.60;;;;;;5050651;28;20445;-66
2022/06/18 11:00:42;;;;;;;23.37;22.27;;;27.50;71.70;;;;;;5052977;28;20494;-64
2022/06/18 11:03:21;;;;;;;23.07;22.07;;;27.50;74.40;;;;;;5052863;28;20454;-65
2022/06/18 11:05:49;;;;;;;23.20;22.30;;;27.50;75.20;;;;;;5052419;28;20502;-65
2022/06/18 11:08:23;;;;;;;24.27;23.40;;;27.50;74.90;;;;;;5052235;28;20495;-64
2022/06/18 11:10:56;;;;;;;23.83;22.70;;;27.50;75.00;;;;;;5052649;28;20518;-61
2022/06/18 11:13:29;;;;;;;24.17;23.27;;;27.50;74.60;;;;;;5052656;28;20986;-64
2022/06/18 11:16:12;;;;;;;25.53;24.63;;;27.50;75.00;;;;;;5052226;28;20975;-64
2022/06/18 11:18:45;;;;;;;26.07;25.10;;;27.50;74.50;;;;;;5052127;28;20474;-63
2022/06/18 11:21:18;;;;;;;23.10;22.30;;;27.50;74.30;;;;;;5052581;28;20845;-63
2022/06/18 11:23:52;;;;;;;23.10;22.10;;;27.50;73.60;;;;;;5052473;28;20519;-66
2022/06/18 11:26:22;;;;;;;23.17;22.37;;;27.50;73.60;;;;;;5052010;28;21064;-65
2022/06/18 11:28:53;;;;;;;24.33;23.47;;;27.50;75.50;;;;;;5041326;28;20455;-66
2022/06/18 11:31:24;;;;;;;25.03;24.03;;;27.50;74.90;;;;;;5052197;28;20538;-66
2022/06/18 11:34:03;;;;;;;23.77;22.87;;;27.50;75.00;;;;;;5052347;28;20523;-65
2022/06/18 11:36:48;;;;;;;23.57;22.37;;;27.60;74.70;;;;;;5051685;28;20546;-65
2022/06/18 11:39:29;;;;;;;23.80;23.00;;;27.60;74.50;;;;;;5052059;28;20456;-65
2022/06/18 11:42:00;;;;;;;23.77;22.87;;;27.60;74.40;;;;;;5052105;28;20444;-65
2022/06/18 11:44:33;;;;;;;24.93;23.93;;;27.60;74.30;;;;;;5051870;28;20530;-63
2022/06/18 11:47:09;;;;;;;23.13;22.07;;;27.60;74.30;;;;;;5051777;28;20536;-65
2022/06/18 11:49:41;;;;;;;23.33;22.50;;;27.60;74.10;;;;;;5052311;28;20444;-64
2022/06/18 11:52:14;;;;;;;24.80;23.80;;;27.60;74.50;;;;;;5051946;28;20567;-64
2022/06/18 11:54:53;;;;;;;23.47;22.30;;;27.60;74.60;;;;;;5051878;28;20468;-64
2022/06/18 11:57:26;;;;;;;23.40;22.60;;;27.70;74.10;;;;;;5051331;28;20440;-64
2022/06/18 12:00:07;;;;;;;24.40;23.20;;;27.70;73.70;;;;;;5051911;28;20489;-65
2022/06/18 12:02:49;;;;;;;24.03;23.03;;;27.70;74.60;;;;;;5051961;28;20867;-64
2022/06/18 12:05:23;;;;;;;23.93;22.73;;;27.70;74.20;;;;;;5051852;28;20517;-64
2022/06/18 12:07:55;;;;;;;25.70;24.70;;;27.70;74.30;;;;;;5051913;28;20947;-65
2022/06/18 12:10:36;;;;;;;22.83;22.03;;;27.70;73.70;;;;;;5051791;28;20480;-63
2022/06/18 12:13:11;;;;;;;24.10;23.10;;;27.70;73.70;;;;;;5052230;28;20444;-64
2022/06/18 12:15:44;;;;;;;24.90;24.00;;;27.80;73.70;;;;;;5051397;28;20502;-65
2022/06/18 12:18:17;;;;;;;24.40;23.40;;;27.80;74.20;;;;;;5051688;28;20811;-66
2022/06/18 12:20:58;;;;;;;25.27;24.37;;;27.80;73.20;;;;;;5051865;28;20444;-65
2022/06/18 12:23:36;;;;;;;25.57;24.47;;;27.80;73.20;;;;;;5051835;28;21026;-66
2022/06/18 12:26:07;;;;;;;24.93;23.97;;;27.80;73.20;;;;;;5051467;28;20551;-66
2022/06/18 12:28:43;;;;;;;25.53;24.57;;;27.80;72.90;;;;;;5051333;28;20472;-66
2022/06/18 12:31:15;;;;;;;24.37;23.27;;;27.80;72.50;;;;;;5051327;28;21060;-65
2022/06/18 12:33:55;;;;;;;24.30;23.40;;;27.80;72.20;;;;;;5051416;28;20539;-64
2022/06/18 12:36:31;;;;;;;24.07;23.17;;;27.80;72.00;;;;;;5051025;28;20555;-66
2022/06/18 12:39:05;;;;;;;23.27;22.20;;;27.80;71.90;;;;;;5051210;28;20471;-66
2022/06/18 12:41:41;;;;;;;24.00;23.20;;;27.80;72.00;;;;;;5051328;28;20472;-65
2022/06/18 12:44:31;;;;;;;25.60;24.60;;;27.80;71.90;;;;;;5051451;28;20471;-66
2022/06/18 12:47:05;;;;;;;23.60;22.70;;;27.80;71.70;;;;;;5030962;28;20524;-66
2022/06/18 12:49:38;;;;;;;23.97;23.10;;;27.80;71.70;;;;;;5031307;28;20473;-65
2022/06/18 12:52:12;;;;;;;22.90;22.00;;;27.90;71.60;;;;;;5031311;28;20575;-66
2022/06/18 12:54:53;;;;;;;23.83;22.93;;;27.90;71.60;;;;;;5034079;28;20543;-65
2022/06/18 12:57:26;;;;;;;24.37;23.50;;;27.90;71.60;;;;;;5051052;28;20530;-65
2022/06/18 13:00:03;;;;;;;24.47;23.37;;;27.90;71.60;;;;;;5051190;28;20444;-65
2022/06/18 13:02:49;;;;;;;23.63;22.83;;;27.90;71.60;;;;;;5051154;28;20528;-65
2022/06/18 13:05:26;;;;;;;26.03;24.73;;;27.90;71.60;;;;;;5050829;28;20456;-66